createdAt,value
2022-08-18T00:02:07.347Z,70.26
2022-08-18T00:04:48.571Z,70.36
2022-08-18T00:07:23.136Z,70.73
2022-08-18T00:09:50.817Z,70.89
2022-08-18T00:12:37.004Z,70.83
2022-08-18T00:15:07.002Z,70.64
2022-08-18T00:17:35.705Z,70.61
2022-08-18T00:20:08.283Z,70.46
2022-08-18T00:22:36.118Z,70.32
2022-08-18T00:25:03.807Z,70.46
2022-08-18T00:27:31.825Z,70.76
2022-08-18T00:30:01.832Z,71.15
2022-08-18T00:32:35.645Z,71.17
2022-08-18T00:35:13.133Z,71.05
2022-08-18T00:37:41.608Z,71.43
2022-08-18T00:40:12.661Z,71.63
2022-08-18T00:43:07.775Z,71.43
2022-08-18T00:45:39.109Z,71.28
2022-08-18T00:48:08.004Z,71.28
2022-08-18T00:50:42.523Z,71.15
2022-08-18T00:53:18.081Z,71.06
2022-08-18T00:55:53.690Z,70.98
2022-08-18T00:58:31.794Z,71.34
2022-08-18T01:01:06.310Z,71.50
2022-08-18T01:03:39.106Z,71.94
2022-08-18T01:06:15.701Z,71.95
2022-08-18T01:08:42.783Z,71.83
2022-08-18T01:11:10.122Z,71.72
2022-08-18T01:13:41.241Z,71.91
2022-08-18T01:16:27.543Z,71.62
2022-08-18T01:19:13.237Z,71.80
2022-08-18T01:21:51.547Z,71.80
2022-08-18T01:24:47.009Z,71.78
2022-08-18T01:27:17.922Z,71.83
2022-08-18T01:29:49.862Z,71.97
2022-08-18T01:32:22.855Z,71.90
2022-08-18T01:34:52.006Z,71.76
2022-08-18T01:37:22.576Z,71.87
2022-08-18T01:41:11.211Z,71.98
2022-08-18T01:42:37.499Z,71.66
2022-08-18T01:45:07.578Z,71.67
2022-08-18T01:47:48.057Z,71.49
2022-08-18T01:50:16.728Z,71.55
2022-08-18T01:52:44.071Z,71.54
2022-08-18T01:55:10.987Z,71.34
2022-08-18T01:57:44.424Z,71.55
2022-08-18T02:00:13.963Z,71.52
2022-08-18T02:02:41.689Z,71.50
2022-08-18T02:05:20.543Z,71.33
2022-08-18T02:07:47.593Z,71.44
2022-08-18T02:10:21.002Z,71.38
2022-08-18T02:12:48.618Z,71.40
2022-08-18T02:15:15.472Z,71.40
2022-08-18T02:17:45.125Z,71.33
2022-08-18T02:20:15.010Z,71.36
2022-08-18T02:22:42.950Z,71.40
2022-08-18T02:25:12.136Z,71.66
2022-08-18T02:27:39.401Z,71.78
2022-08-18T02:30:11.162Z,71.90
2022-08-18T02:32:38.106Z,71.98
2022-08-18T02:35:08.983Z,71.86
2022-08-18T02:37:42.253Z,71.87
2022-08-18T02:40:11.907Z,71.79
2022-08-18T02:42:45.428Z,72.21
2022-08-18T02:45:13.820Z,72.19
2022-08-18T02:47:40.770Z,72.26
2022-08-18T02:50:11.814Z,72.52
2022-08-18T02:52:40.429Z,72.46
2022-08-18T02:55:09.349Z,72.61
2022-08-18T02:57:41.549Z,72.80
2022-08-18T03:00:11.903Z,72.86
2022-08-18T03:02:40.161Z,72.93
2022-08-18T03:05:10.852Z,72.82
2022-08-18T03:07:42.654Z,72.78
2022-08-18T03:10:33.330Z,72.99
2022-08-18T03:12:57.138Z,72.76
2022-08-18T03:15:23.851Z,72.85
2022-08-18T03:17:53.648Z,72.83
2022-08-18T03:20:29.976Z,72.96
2022-08-18T03:22:59.269Z,72.82
2022-08-18T03:25:26.043Z,72.89
2022-08-18T03:27:53.148Z,72.74
2022-08-18T03:30:20.285Z,72.81
2022-08-18T03:32:47.329Z,72.80
2022-08-18T03:35:14.383Z,72.75
2022-08-18T03:37:41.581Z,72.81
2022-08-18T03:40:10.544Z,72.81
2022-08-18T03:42:37.986Z,72.90
2022-08-18T03:45:13.062Z,72.93
2022-08-18T03:47:45.354Z,72.92
2022-08-18T03:50:13.947Z,72.80
2022-08-18T03:52:41.569Z,72.69
2022-08-18T03:55:08.958Z,72.56
2022-08-18T03:57:39.037Z,72.61
2022-08-18T04:00:09.310Z,72.69
2022-08-18T04:02:36.173Z,72.91
2022-08-18T04:05:05.430Z,72.95
2022-08-18T04:07:32.591Z,72.85
2022-08-18T04:09:59.982Z,72.81
2022-08-18T04:12:26.974Z,72.96
2022-08-18T04:14:54.045Z,73.00
2022-08-18T04:17:24.701Z,72.97
2022-08-18T04:19:56.364Z,73.08
2022-08-18T04:22:26.055Z,73.13
2022-08-18T04:25:00.494Z,73.27
2022-08-18T04:27:29.911Z,73.33
2022-08-18T04:29:57.200Z,73.31
2022-08-18T04:32:30.254Z,73.45
2022-08-18T04:34:58.522Z,73.54
2022-08-18T04:37:32.437Z,73.45
2022-08-18T04:40:02.183Z,73.55
2022-08-18T04:42:29.566Z,73.49
2022-08-18T04:44:57.558Z,73.52
2022-08-18T04:47:24.507Z,73.42
2022-08-18T04:49:51.560Z,73.47
2022-08-18T04:52:41.582Z,73.33
2022-08-18T04:55:10.743Z,73.29
2022-08-18T04:57:38.940Z,73.29
2022-08-18T05:00:14.271Z,73.56
2022-08-18T05:02:43.935Z,73.54
2022-08-18T05:05:11.400Z,73.17
2022-08-18T05:07:44.359Z,73.13
2022-08-18T05:10:12.392Z,72.96
2022-08-18T05:12:42.911Z,73.03
2022-08-18T05:15:10.156Z,72.71
2022-08-18T05:17:39.359Z,72.52
2022-08-18T05:20:09.078Z,72.54
2022-08-18T05:22:40.262Z,72.49
2022-08-18T05:25:11.858Z,72.28
2022-08-18T05:27:43.142Z,72.11
2022-08-18T05:30:11.526Z,72.14
2022-08-18T05:32:49.288Z,71.54
2022-08-18T05:35:33.042Z,71.41
2022-08-18T05:38:32.383Z,71.24
2022-08-18T05:41:08.575Z,70.67
2022-08-18T05:43:52.109Z,70.29
2022-08-18T05:46:30.760Z,69.85
2022-08-18T05:48:58.226Z,69.45
2022-08-18T05:51:32.838Z,69.15
2022-08-18T05:54:23.123Z,68.78
2022-08-18T05:56:54.232Z,68.56
2022-08-18T05:59:33.438Z,68.61
2022-08-18T06:02:11.002Z,68.78
2022-08-18T06:04:42.861Z,68.74
2022-08-18T06:07:17.277Z,68.46
2022-08-18T06:09:51.498Z,68.41
2022-08-18T06:12:33.285Z,68.37
2022-08-18T06:15:16.401Z,68.06
2022-08-18T06:18:12.643Z,67.64
2022-08-18T06:21:09.698Z,67.63
2022-08-18T06:24:04.813Z,67.50
2022-08-18T06:27:10.055Z,66.51
2022-08-18T06:30:07.225Z,65.56
2022-08-18T06:33:11.103Z,65.03
2022-08-18T06:35:48.476Z,64.67
2022-08-18T06:38:48.368Z,64.69
2022-08-18T06:41:41.858Z,64.78
2022-08-18T06:44:19.459Z,64.29
2022-08-18T06:46:56.487Z,63.66
2022-08-18T06:49:37.444Z,63.41
2022-08-18T06:52:25.712Z,63.22
2022-08-18T06:54:56.234Z,63.09
2022-08-18T06:57:28.078Z,62.74
2022-08-18T07:00:08.220Z,62.38
2022-08-18T07:02:56.068Z,62.09
2022-08-18T07:05:30.330Z,62.00
2022-08-18T07:08:30.100Z,60.92
2022-08-18T07:11:13.735Z,60.30
2022-08-18T07:13:44.584Z,60.09
2022-08-18T07:16:54.933Z,59.48
2022-08-18T07:19:29.756Z,59.19
2022-08-18T07:22:14.593Z,59.23
2022-08-18T07:24:54.138Z,59.01
2022-08-18T07:27:42.619Z,57.97
2022-08-18T07:30:29.321Z,58.37
2022-08-18T07:33:05.971Z,58.42
2022-08-18T07:35:39.517Z,57.76
2022-08-18T07:38:44.104Z,57.04
2022-08-18T07:41:30.000Z,56.75
2022-08-18T07:44:23.026Z,57.57
2022-08-18T07:46:59.673Z,55.95
2022-08-18T07:49:36.417Z,55.75
2022-08-18T07:52:36.239Z,55.00
2022-08-18T07:55:22.189Z,54.72
2022-08-18T07:57:54.540Z,54.03
2022-08-18T08:00:58.611Z,54.06
2022-08-18T08:03:27.846Z,54.07
2022-08-18T08:06:21.732Z,52.98
2022-08-18T08:09:28.320Z,52.96
2022-08-18T08:12:33.089Z,51.99
2022-08-18T08:15:35.847Z,51.58
2022-08-18T08:18:18.398Z,51.32
2022-08-18T08:20:55.225Z,51.13
2022-08-18T08:24:14.949Z,50.40
2022-08-18T08:26:51.608Z,50.13
2022-08-18T08:29:53.358Z,49.91
2022-08-18T08:33:07.496Z,50.25
2022-08-18T08:35:52.580Z,49.28
2022-08-18T08:38:47.775Z,49.34
2022-08-18T08:41:25.948Z,49.20
2022-08-18T08:44:58.016Z,48.94
2022-08-18T08:47:33.169Z,48.86
2022-08-18T08:50:03.391Z,48.77
2022-08-18T08:52:47.281Z,48.42
2022-08-18T08:55:27.082Z,48.14
2022-08-18T08:58:10.824Z,47.75
2022-08-18T09:00:42.264Z,47.60
2022-08-18T09:03:32.308Z,47.69
2022-08-18T09:06:00.568Z,47.20
2022-08-18T09:08:32.511Z,46.71
2022-08-18T09:11:18.755Z,46.73
2022-08-18T09:14:02.293Z,46.92
2022-08-18T09:17:01.007Z,46.92
2022-08-18T09:19:45.469Z,46.33
2022-08-18T09:22:17.425Z,45.88
2022-08-18T09:24:53.534Z,45.05
2022-08-18T09:27:31.053Z,44.92
2022-08-18T09:30:02.234Z,44.68
2022-08-18T09:32:42.930Z,44.66
2022-08-18T09:35:24.650Z,44.52
2022-08-18T09:38:20.343Z,43.71
2022-08-18T09:41:11.164Z,42.98
2022-08-18T09:44:09.768Z,43.10
2022-08-18T09:46:50.636Z,42.44
2022-08-18T09:49:30.378Z,42.33
2022-08-18T09:52:24.307Z,42.09
2022-08-18T09:54:53.975Z,41.58
2022-08-18T09:57:50.600Z,41.30
2022-08-18T10:00:31.220Z,41.33
2022-08-18T10:03:10.812Z,40.31
2022-08-18T10:05:39.845Z,40.69
2022-08-18T10:08:10.067Z,40.50
2022-08-18T10:11:01.537Z,41.13
2022-08-18T10:14:23.437Z,40.08
2022-08-18T10:17:23.445Z,39.55
2022-08-18T10:19:58.394Z,39.32
2022-08-18T10:22:47.871Z,39.71
2022-08-18T10:25:37.768Z,40.32
2022-08-18T10:28:10.303Z,40.01
2022-08-18T10:30:56.790Z,40.01
2022-08-18T10:33:57.887Z,39.41
2022-08-18T10:36:40.156Z,38.92
2022-08-18T10:39:23.696Z,38.91
2022-08-18T10:42:05.923Z,38.49
2022-08-18T10:44:48.369Z,38.39
2022-08-18T10:47:33.444Z,38.40
2022-08-18T10:50:18.698Z,38.02
2022-08-18T10:56:08.376Z,36.91
2022-08-18T10:58:43.801Z,36.23
2022-08-18T11:01:43.241Z,36.09
2022-08-18T11:04:37.166Z,35.61
2022-08-18T11:07:30.983Z,36.17
2022-08-18T11:10:32.286Z,35.86
2022-08-18T11:13:17.232Z,36.56
2022-08-18T11:16:03.752Z,36.54
2022-08-18T11:18:49.450Z,36.77
2022-08-18T11:21:41.659Z,36.96
2022-08-18T11:24:17.114Z,37.43
2022-08-18T11:26:52.867Z,37.23
2022-08-18T11:29:28.570Z,36.07
2022-08-18T11:32:11.727Z,35.33
2022-08-18T11:34:52.833Z,35.50
2022-08-18T11:37:53.666Z,35.79
2022-08-18T11:43:40.920Z,36.15
2022-08-18T11:46:30.090Z,35.84
2022-08-18T11:49:24.073Z,35.71
2022-08-18T11:52:02.963Z,35.77
2022-08-18T11:54:50.914Z,36.10
2022-08-18T11:57:49.288Z,36.26
2022-08-18T12:00:36.157Z,35.78
2022-08-18T12:03:19.594Z,35.45
2022-08-18T12:09:45.544Z,35.48
2022-08-18T12:12:30.171Z,35.57
2022-08-18T12:15:13.867Z,35.52
2022-08-18T12:17:52.413Z,35.03
2022-08-18T12:20:22.074Z,34.77
2022-08-18T12:22:50.719Z,35.24
2022-08-18T12:25:25.336Z,34.41
2022-08-18T12:27:53.973Z,34.56
2022-08-18T12:30:21.521Z,34.14
2022-08-18T12:32:50.705Z,34.14
2022-08-18T12:38:14.502Z,34.37
2022-08-18T12:40:45.632Z,34.69
2022-08-18T12:43:17.735Z,34.42
2022-08-18T12:46:06.906Z,33.95
2022-08-18T12:48:44.708Z,33.72
2022-08-18T12:51:16.093Z,33.86
2022-08-18T12:53:58.320Z,33.83
2022-08-18T12:56:32.473Z,34.02
2022-08-18T12:59:07.731Z,34.00
2022-08-18T13:01:39.711Z,34.26
2022-08-18T13:04:13.348Z,34.29
2022-08-18T13:07:05.947Z,34.05
2022-08-18T13:09:52.881Z,33.44
2022-08-18T13:12:25.308Z,33.19
2022-08-18T13:14:54.820Z,33.63
2022-08-18T13:17:30.533Z,33.42
2022-08-18T13:20:13.572Z,33.18
2022-08-18T13:23:00.245Z,33.00
2022-08-18T13:25:32.280Z,32.85
2022-08-18T13:28:02.027Z,33.32
2022-08-18T13:30:32.419Z,33.24
2022-08-18T13:33:05.712Z,33.28
2022-08-18T13:35:52.453Z,33.15
2022-08-18T13:38:27.488Z,33.25
2022-08-18T13:40:59.160Z,32.61
2022-08-18T13:43:39.540Z,32.68
2022-08-18T13:46:09.253Z,32.93
2022-08-18T13:48:39.373Z,32.84
2022-08-18T13:51:13.957Z,32.76
2022-08-18T13:53:51.049Z,32.67
2022-08-18T13:56:31.322Z,32.94
2022-08-18T13:58:59.807Z,32.88
2022-08-18T14:01:51.369Z,32.47
2022-08-18T14:04:20.526Z,32.53
2022-08-18T14:06:56.988Z,32.18
2022-08-18T14:09:36.248Z,33.15
2022-08-18T14:12:23.315Z,32.16
2022-08-18T14:14:54.194Z,31.79
2022-08-18T14:17:25.347Z,32.04
2022-08-18T14:20:15.456Z,32.31
2022-08-18T14:23:27.943Z,32.82
2022-08-18T14:26:22.527Z,33.53
2022-08-18T14:28:52.763Z,33.08
2022-08-18T14:31:23.116Z,33.41
2022-08-18T14:33:53.697Z,33.83
2022-08-18T14:36:30.218Z,33.84
2022-08-18T14:39:01.731Z,33.73
2022-08-18T14:41:31.512Z,33.89
2022-08-18T14:44:12.382Z,33.77
2022-08-18T14:46:54.238Z,34.09
2022-08-18T14:49:28.334Z,33.95
2022-08-18T14:51:59.336Z,33.03
2022-08-18T14:54:28.682Z,33.01
2022-08-18T14:57:01.558Z,33.04
2022-08-18T14:59:37.505Z,33.49
2022-08-18T15:02:13.111Z,33.83
2022-08-18T15:04:55.965Z,33.99
2022-08-18T15:07:28.182Z,34.25
2022-08-18T15:10:15.358Z,34.03
2022-08-18T15:12:46.809Z,34.02
2022-08-18T15:15:18.264Z,33.61
2022-08-18T15:17:50.088Z,33.27
2022-08-18T15:20:28.856Z,33.69
2022-08-18T15:23:28.331Z,33.55
2022-08-18T15:25:58.839Z,32.71
2022-08-18T15:28:31.093Z,32.93
2022-08-18T15:31:17.069Z,32.95
2022-08-18T15:33:50.250Z,32.64
2022-08-18T15:36:24.107Z,32.54
2022-08-18T15:39:00.700Z,33.25
2022-08-18T15:41:44.263Z,33.81
2022-08-18T15:44:23.096Z,34.01
2022-08-18T15:46:53.205Z,34.22
2022-08-18T15:49:21.914Z,34.24
2022-08-18T15:51:52.559Z,34.43
2022-08-18T15:54:25.670Z,34.70
2022-08-18T15:56:58.469Z,34.85
2022-08-18T15:59:34.146Z,34.91
2022-08-18T16:02:11.872Z,34.74
2022-08-18T16:04:41.368Z,35.20
2022-08-18T16:07:15.886Z,35.33
2022-08-18T16:09:46.677Z,35.33
2022-08-18T16:12:14.349Z,35.42
2022-08-18T16:14:42.315Z,35.42
2022-08-18T16:17:18.367Z,35.28
2022-08-18T16:19:52.496Z,35.04
2022-08-18T16:22:21.691Z,34.59
2022-08-18T16:24:52.771Z,34.63
2022-08-18T16:27:22.749Z,34.76
2022-08-18T16:29:49.912Z,35.23
2022-08-18T16:32:17.050Z,35.51
2022-08-18T16:34:43.990Z,35.56
2022-08-18T16:37:11.955Z,35.65
2022-08-18T16:39:39.166Z,35.78
2022-08-18T16:42:06.674Z,36.09
2022-08-18T16:44:33.506Z,36.18
2022-08-18T16:47:03.942Z,36.81
2022-08-18T16:49:32.290Z,37.07
2022-08-18T16:52:03.329Z,37.44
2022-08-18T16:54:35.084Z,37.51
2022-08-18T16:57:06.563Z,37.75
2022-08-18T16:59:52.411Z,37.68
2022-08-18T17:02:38.043Z,38.14
2022-08-18T17:05:05.448Z,38.33
2022-08-18T17:07:35.437Z,38.39
2022-08-18T17:10:05.627Z,38.33
2022-08-18T17:12:32.778Z,38.92
2022-08-18T17:14:59.934Z,38.75
2022-08-18T17:17:28.455Z,38.96
2022-08-18T17:19:55.817Z,38.99
2022-08-18T17:22:23.361Z,38.87
2022-08-18T17:24:59.417Z,39.08
2022-08-18T17:27:37.302Z,39.49
2022-08-18T17:30:11.329Z,39.45
2022-08-18T17:32:48.834Z,39.47
2022-08-18T17:35:23.466Z,39.63
2022-08-18T17:38:04.409Z,39.63
2022-08-18T17:40:47.651Z,39.87
2022-08-18T17:43:21.710Z,39.97
2022-08-18T17:45:58.474Z,40.23
2022-08-18T17:48:35.015Z,40.43
2022-08-18T17:51:32.348Z,40.63
2022-08-18T17:54:41.405Z,41.11
2022-08-18T17:57:13.669Z,41.61
2022-08-18T17:59:51.764Z,41.86
2022-08-18T18:02:29.968Z,42.00
2022-08-18T18:05:05.024Z,42.00
2022-08-18T18:07:39.867Z,41.93
2022-08-18T18:10:22.161Z,42.24
2022-08-18T18:13:11.022Z,42.61
2022-08-18T18:15:41.247Z,42.90
2022-08-18T18:18:22.726Z,43.04
2022-08-18T18:21:21.939Z,43.44
2022-08-18T18:24:05.472Z,43.49
2022-08-18T18:26:36.198Z,43.73
2022-08-18T18:29:29.099Z,44.08
2022-08-18T18:32:01.539Z,44.24
2022-08-18T18:34:38.001Z,44.35
2022-08-18T18:37:33.246Z,44.51
2022-08-18T18:40:07.626Z,45.03
2022-08-18T18:42:36.290Z,45.03
2022-08-18T18:45:19.235Z,45.00
2022-08-18T18:48:01.718Z,45.39
2022-08-18T18:50:31.363Z,45.37
2022-08-18T18:53:15.010Z,45.67
2022-08-18T18:56:01.869Z,45.99
2022-08-18T18:58:48.909Z,46.17
2022-08-18T19:01:35.346Z,46.58
2022-08-18T19:04:37.148Z,47.01
2022-08-18T19:07:20.889Z,47.33
2022-08-18T19:10:05.752Z,47.81
2022-08-18T19:12:53.547Z,48.04
2022-08-18T19:15:33.302Z,48.35
2022-08-18T19:18:40.230Z,48.49
2022-08-18T19:22:04.682Z,49.14
2022-08-18T19:24:25.006Z,49.52
2022-08-18T19:26:59.829Z,49.86
2022-08-18T19:29:35.477Z,50.03
2022-08-18T19:32:18.949Z,50.41
2022-08-18T19:34:51.628Z,50.67
2022-08-18T19:37:51.152Z,50.90
2022-08-18T19:40:36.378Z,51.10
2022-08-18T19:43:42.766Z,51.34
2022-08-18T19:46:29.995Z,51.67
2022-08-18T19:49:09.820Z,51.75
2022-08-18T19:51:44.388Z,52.15
2022-08-18T19:54:30.865Z,52.20
2022-08-18T19:57:23.965Z,52.37
2022-08-18T20:00:08.391Z,52.65
2022-08-18T20:02:49.743Z,52.70
2022-08-18T20:05:51.282Z,52.99
2022-08-18T20:08:30.732Z,53.44
2022-08-18T20:11:08.445Z,53.73
2022-08-18T20:13:43.713Z,53.64
2022-08-18T20:16:35.533Z,53.90
2022-08-18T20:19:47.883Z,54.16
2022-08-18T20:22:24.598Z,54.24
2022-08-18T20:25:06.388Z,54.33
2022-08-18T20:27:41.034Z,54.57
2022-08-18T20:30:25.677Z,54.72
2022-08-18T20:33:32.640Z,54.94
2022-08-18T20:36:28.351Z,55.06
2022-08-18T20:38:59.328Z,55.27
2022-08-18T20:41:28.408Z,55.41
2022-08-18T20:44:12.348Z,55.46
2022-08-18T20:47:00.661Z,55.63
2022-08-18T20:49:50.297Z,55.68
2022-08-18T20:52:45.787Z,55.78
2022-08-18T20:55:19.819Z,55.78
2022-08-18T20:57:54.874Z,55.95
2022-08-18T21:00:27.551Z,55.95
2022-08-18T21:02:58.559Z,55.93
2022-08-18T21:05:27.837Z,56.04
2022-08-18T21:08:17.467Z,56.06
2022-08-18T21:11:10.512Z,56.20
2022-08-18T21:13:40.926Z,56.25
2022-08-18T21:16:37.893Z,56.31
2022-08-18T21:19:17.603Z,56.24
2022-08-18T21:21:55.216Z,56.19
2022-08-18T21:24:49.574Z,56.15
2022-08-18T21:27:32.651Z,56.21
2022-08-18T21:30:07.160Z,56.02
2022-08-18T21:32:37.352Z,55.89
2022-08-18T21:35:22.172Z,55.77
2022-08-18T21:38:11.906Z,55.92
2022-08-18T21:40:49.601Z,55.91
2022-08-18T21:43:48.885Z,56.12
2022-08-18T21:46:26.929Z,56.18
2022-08-18T21:48:57.223Z,56.26
2022-08-18T21:51:42.969Z,56.35
2022-08-18T21:54:14.115Z,56.41
2022-08-18T21:56:41.815Z,56.33
2022-08-18T21:59:14.190Z,56.39
2022-08-18T22:01:54.649Z,56.29
2022-08-18T22:04:33.073Z,56.46
2022-08-18T22:07:04.421Z,56.50
2022-08-18T22:10:04.152Z,56.54
2022-08-18T22:12:53.271Z,56.42
2022-08-18T22:15:35.395Z,56.52
2022-08-18T22:18:06.544Z,56.57
2022-08-18T22:20:39.629Z,56.51
2022-08-18T22:23:39.644Z,56.50
2022-08-18T22:26:14.682Z,56.54
2022-08-18T22:29:06.025Z,56.55
2022-08-18T22:31:40.554Z,56.51
2022-08-18T22:34:13.204Z,56.56
2022-08-18T22:36:44.082Z,56.58
2022-08-18T22:39:25.519Z,56.57
2022-08-18T22:41:52.926Z,56.64
2022-08-18T22:44:19.822Z,56.62
2022-08-18T22:46:49.123Z,56.76
2022-08-18T22:49:17.500Z,56.67
2022-08-18T22:51:45.688Z,56.65
2022-08-18T22:54:14.318Z,56.77
2022-08-18T22:56:53.702Z,56.69
2022-08-18T22:59:22.837Z,56.83
2022-08-18T23:01:50.813Z,56.92
2022-08-18T23:04:20.788Z,56.86
2022-08-18T23:06:51.747Z,56.85
2022-08-18T23:09:25.327Z,56.79
2022-08-18T23:11:54.838Z,56.99
2022-08-18T23:14:22.308Z,57.23
2022-08-18T23:16:50.155Z,57.19
2022-08-18T23:19:19.239Z,57.09
2022-08-18T23:21:48.140Z,57.16
2022-08-18T23:24:16.724Z,57.52
2022-08-18T23:26:43.768Z,57.22
2022-08-18T23:29:14.103Z,57.41
2022-08-18T23:31:43.809Z,57.46
2022-08-18T23:34:13.125Z,57.54
2022-08-18T23:36:45.074Z,57.51
2022-08-18T23:39:14.076Z,57.75
2022-08-18T23:41:41.674Z,57.76
2022-08-18T23:44:08.632Z,57.60
2022-08-18T23:46:37.365Z,57.75
2022-08-18T23:49:05.571Z,57.65
2022-08-18T23:51:43.475Z,57.74
2022-08-18T23:54:13.964Z,57.76
2022-08-18T23:56:40.979Z,57.99
2022-08-18T23:59:08.572Z,57.84
